sensor_id;sensor_type;location;lat;lon;timestamp;temperature;humidity
10062;DHT22;5070;52.382;5.270;2023-07-13T00:01:14;25.50;70.50
10062;DHT22;5070;52.382;5.270;2023-07-13T00:03:43;25.50;71.00
10062;DHT22;5070;52.382;5.270;2023-07-13T00:06:11;25.50;71.50
10062;DHT22;5070;52.382;5.270;2023-07-13T00:08:39;25.50;71.80
10062;DHT22;5070;52.382;5.270;2023-07-13T00:11:09;25.50;72.10
10062;DHT22;5070;52.382;5.270;2023-07-13T00:13:38;25.50;72.00
10062;DHT22;5070;52.382;5.270;2023-07-13T00:16:07;25.40;73.20
10062;DHT22;5070;52.382;5.270;2023-07-13T00:18:36;25.40;78.70
10062;DHT22;5070;52.382;5.270;2023-07-13T00:21:04;25.40;74.60
10062;DHT22;5070;52.382;5.270;2023-07-13T00:23:33;25.40;77.30
10062;DHT22;5070;52.382;5.270;2023-07-13T00:26:02;25.50;78.30
10062;DHT22;5070;52.382;5.270;2023-07-13T00:28:33;25.40;77.10
10062;DHT22;5070;52.382;5.270;2023-07-13T00:31:01;25.40;76.70
10062;DHT22;5070;52.382;5.270;2023-07-13T00:33:33;25.40;78.60
10062;DHT22;5070;52.382;5.270;2023-07-13T00:36:01;25.40;75.30
10062;DHT22;5070;52.382;5.270;2023-07-13T00:38:30;25.40;77.40
10062;DHT22;5070;52.382;5.270;2023-07-13T00:40:58;25.40;79.90
10062;DHT22;5070;52.382;5.270;2023-07-13T00:43:27;25.40;69.90
10062;DHT22;5070;52.382;5.270;2023-07-13T00:46:18;25.40;72.80
10062;DHT22;5070;52.382;5.270;2023-07-13T00:48:48;25.40;75.80
10062;DHT22;5070;52.382;5.270;2023-07-13T00:51:20;25.40;70.40
10062;DHT22;5070;52.382;5.270;2023-07-13T00:53:50;25.40;69.00
10062;DHT22;5070;52.382;5.270;2023-07-13T00:56:20;25.40;68.80
10062;DHT22;5070;52.382;5.270;2023-07-13T00:58:48;25.40;68.60
10062;DHT22;5070;52.382;5.270;2023-07-13T01:01:20;25.40;69.50
10062;DHT22;5070;52.382;5.270;2023-07-13T01:03:48;25.30;69.30
10062;DHT22;5070;52.382;5.270;2023-07-13T01:06:17;25.30;69.20
10062;DHT22;5070;52.382;5.270;2023-07-13T01:08:45;25.40;69.70
10062;DHT22;5070;52.382;5.270;2023-07-13T01:11:18;25.40;69.50
10062;DHT22;5070;52.382;5.270;2023-07-13T01:13:46;25.30;69.60
10062;DHT22;5070;52.382;5.270;2023-07-13T01:16:22;25.30;70.20
10062;DHT22;5070;52.382;5.270;2023-07-13T01:18:52;25.30;70.80
10062;DHT22;5070;52.382;5.270;2023-07-13T01:21:23;25.30;71.60
10062;DHT22;5070;52.382;5.270;2023-07-13T01:23:51;25.30;70.60
10062;DHT22;5070;52.382;5.270;2023-07-13T01:26:21;25.30;70.00
10062;DHT22;5070;52.382;5.270;2023-07-13T01:28:49;25.30;70.50
10062;DHT22;5070;52.382;5.270;2023-07-13T01:31:17;25.30;69.30
10062;DHT22;5070;52.382;5.270;2023-07-13T01:33:45;25.30;69.10
10062;DHT22;5070;52.382;5.270;2023-07-13T01:36:14;25.30;69.00
10062;DHT22;5070;52.382;5.270;2023-07-13T01:38:43;25.30;68.80
10062;DHT22;5070;52.382;5.270;2023-07-13T01:41:12;25.30;68.30
10062;DHT22;5070;52.382;5.270;2023-07-13T01:43:40;25.30;69.00
10062;DHT22;5070;52.382;5.270;2023-07-13T01:46:08;25.30;68.30
10062;DHT22;5070;52.382;5.270;2023-07-13T01:48:50;25.20;68.30
10062;DHT22;5070;52.382;5.270;2023-07-13T01:51:19;25.20;68.30
10062;DHT22;5070;52.382;5.270;2023-07-13T01:53:48;25.20;68.40
10062;DHT22;5070;52.382;5.270;2023-07-13T01:56:17;25.20;68.50
10062;DHT22;5070;52.382;5.270;2023-07-13T01:58:46;25.20;68.50
10062;DHT22;5070;52.382;5.270;2023-07-13T02:01:14;25.20;68.50
10062;DHT22;5070;52.382;5.270;2023-07-13T02:03:42;25.20;68.80
10062;DHT22;5070;52.382;5.270;2023-07-13T02:06:10;25.20;68.80
10062;DHT22;5070;52.382;5.270;2023-07-13T02:08:40;25.20;68.90
10062;DHT22;5070;52.382;5.270;2023-07-13T02:11:11;25.20;69.00
10062;DHT22;5070;52.382;5.270;2023-07-13T02:13:40;25.20;69.10
10062;DHT22;5070;52.382;5.270;2023-07-13T02:16:08;25.20;69.20
10062;DHT22;5070;52.382;5.270;2023-07-13T02:18:37;25.20;69.20
10062;DHT22;5070;52.382;5.270;2023-07-13T02:21:05;25.20;69.30
10062;DHT22;5070;52.382;5.270;2023-07-13T02:23:33;25.10;69.30
10062;DHT22;5070;52.382;5.270;2023-07-13T02:26:03;25.20;69.90
10062;DHT22;5070;52.382;5.270;2023-07-13T02:28:33;25.10;69.80
10062;DHT22;5070;52.382;5.270;2023-07-13T02:31:05;25.10;69.90
10062;DHT22;5070;52.382;5.270;2023-07-13T02:33:34;25.20;70.10
10062;DHT22;5070;52.382;5.270;2023-07-13T02:36:02;25.10;70.10
10062;DHT22;5070;52.382;5.270;2023-07-13T02:38:32;25.10;70.00
10062;DHT22;5070;52.382;5.270;2023-07-13T02:41:02;25.10;69.90
10062;DHT22;5070;52.382;5.270;2023-07-13T02:43:30;25.10;69.80
10062;DHT22;5070;52.382;5.270;2023-07-13T02:46:00;25.10;69.80
10062;DHT22;5070;52.382;5.270;2023-07-13T02:48:36;25.10;69.80
10062;DHT22;5070;52.382;5.270;2023-07-13T02:51:05;25.10;70.00
10062;DHT22;5070;52.382;5.270;2023-07-13T02:53:33;25.10;69.90
10062;DHT22;5070;52.382;5.270;2023-07-13T02:56:04;25.10;69.90
10062;DHT22;5070;52.382;5.270;2023-07-13T02:58:32;25.10;70.00
10062;DHT22;5070;52.382;5.270;2023-07-13T03:01:08;25.10;69.90
10062;DHT22;5070;52.382;5.270;2023-07-13T03:03:36;25.10;70.20
10062;DHT22;5070;52.382;5.270;2023-07-13T03:06:05;25.10;70.40
10062;DHT22;5070;52.382;5.270;2023-07-13T03:08:44;25.10;70.60
10062;DHT22;5070;52.382;5.270;2023-07-13T03:11:14;25.10;70.60
10062;DHT22;5070;52.382;5.270;2023-07-13T03:13:45;25.10;70.60
10062;DHT22;5070;52.382;5.270;2023-07-13T03:16:15;25.10;70.30
10062;DHT22;5070;52.382;5.270;2023-07-13T03:18:48;25.10;69.70
10062;DHT22;5070;52.382;5.270;2023-07-13T03:21:17;25.00;69.20
10062;DHT22;5070;52.382;5.270;2023-07-13T03:23:46;25.00;68.80
10062;DHT22;5070;52.382;5.270;2023-07-13T03:26:17;25.00;68.50
10062;DHT22;5070;52.382;5.270;2023-07-13T03:28:46;25.00;68.30
10062;DHT22;5070;52.382;5.270;2023-07-13T03:31:21;25.00;68.00
10062;DHT22;5070;52.382;5.270;2023-07-13T03:33:50;25.10;68.60
10062;DHT22;5070;52.382;5.270;2023-07-13T03:36:22;25.00;67.80
10062;DHT22;5070;52.382;5.270;2023-07-13T03:38:56;25.00;67.70
10062;DHT22;5070;52.382;5.270;2023-07-13T03:41:30;25.00;67.70
10062;DHT22;5070;52.382;5.270;2023-07-13T03:43:58;25.00;67.70
10062;DHT22;5070;52.382;5.270;2023-07-13T03:46:29;25.00;67.70
10062;DHT22;5070;52.382;5.270;2023-07-13T03:48:57;25.00;67.80
10062;DHT22;5070;52.382;5.270;2023-07-13T03:51:25;25.00;67.90
10062;DHT22;5070;52.382;5.270;2023-07-13T03:53:53;25.00;67.90
10062;DHT22;5070;52.382;5.270;2023-07-13T03:56:22;25.00;67.80
10062;DHT22;5070;52.382;5.270;2023-07-13T03:58:50;25.00;67.70
10062;DHT22;5070;52.382;5.270;2023-07-13T04:01:22;25.00;67.70
10062;DHT22;5070;52.382;5.270;2023-07-13T04:03:53;24.90;67.60
10062;DHT22;5070;52.382;5.270;2023-07-13T04:06:25;24.90;67.60
10062;DHT22;5070;52.382;5.270;2023-07-13T04:08:56;24.90;67.60
10062;DHT22;5070;52.382;5.270;2023-07-13T04:11:26;25.00;67.80
10062;DHT22;5070;52.382;5.270;2023-07-13T04:13:55;24.90;67.80
10062;DHT22;5070;52.382;5.270;2023-07-13T04:16:24;24.90;67.70
10062;DHT22;5070;52.382;5.270;2023-07-13T04:18:54;25.00;67.80
10062;DHT22;5070;52.382;5.270;2023-07-13T04:21:27;24.90;67.80
10062;DHT22;5070;52.382;5.270;2023-07-13T04:23:56;24.90;67.70
10062;DHT22;5070;52.382;5.270;2023-07-13T04:26:24;24.90;68.50
10062;DHT22;5070;52.382;5.270;2023-07-13T04:28:53;24.90;67.80
10062;DHT22;5070;52.382;5.270;2023-07-13T04:31:21;24.90;67.80
10062;DHT22;5070;52.382;5.270;2023-07-13T04:33:49;24.90;67.80
10062;DHT22;5070;52.382;5.270;2023-07-13T04:36:20;24.90;67.70
10062;DHT22;5070;52.382;5.270;2023-07-13T04:38:48;24.90;67.80
10062;DHT22;5070;52.382;5.270;2023-07-13T04:41:16;24.90;67.90
10062;DHT22;5070;52.382;5.270;2023-07-13T04:43:44;25.00;68.00
10062;DHT22;5070;52.382;5.270;2023-07-13T04:46:14;24.90;68.00
10062;DHT22;5070;52.382;5.270;2023-07-13T04:48:44;24.90;68.10
10062;DHT22;5070;52.382;5.270;2023-07-13T04:51:12;25.00;68.10
10062;DHT22;5070;52.382;5.270;2023-07-13T04:53:42;25.00;68.20
10062;DHT22;5070;52.382;5.270;2023-07-13T04:56:10;25.00;68.10
10062;DHT22;5070;52.382;5.270;2023-07-13T04:58:39;25.00;68.20
10062;DHT22;5070;52.382;5.270;2023-07-13T05:01:09;25.00;68.20
10062;DHT22;5070;52.382;5.270;2023-07-13T05:03:38;25.00;68.20
10062;DHT22;5070;52.382;5.270;2023-07-13T05:06:07;25.00;68.20
10062;DHT22;5070;52.382;5.270;2023-07-13T05:08:36;25.00;68.20
10062;DHT22;5070;52.382;5.270;2023-07-13T05:11:06;25.00;68.20
10062;DHT22;5070;52.382;5.270;2023-07-13T05:13:35;25.00;68.20
10062;DHT22;5070;52.382;5.270;2023-07-13T05:16:04;25.00;68.20
10062;DHT22;5070;52.382;5.270;2023-07-13T05:18:35;25.00;68.20
10062;DHT22;5070;52.382;5.270;2023-07-13T05:21:08;25.00;68.20
10062;DHT22;5070;52.382;5.270;2023-07-13T05:23:38;25.00;68.30
10062;DHT22;5070;52.382;5.270;2023-07-13T05:26:10;25.00;68.40
10062;DHT22;5070;52.382;5.270;2023-07-13T05:28:39;25.00;68.40
10062;DHT22;5070;52.382;5.270;2023-07-13T05:31:07;25.00;68.50
10062;DHT22;5070;52.382;5.270;2023-07-13T05:33:36;25.00;68.50
10062;DHT22;5070;52.382;5.270;2023-07-13T05:36:05;25.00;68.50
10062;DHT22;5070;52.382;5.270;2023-07-13T05:38:33;25.00;68.60
10062;DHT22;5070;52.382;5.270;2023-07-13T05:41:02;25.00;68.50
10062;DHT22;5070;52.382;5.270;2023-07-13T05:43:34;25.00;68.60
10062;DHT22;5070;52.382;5.270;2023-07-13T05:46:02;25.00;68.70
10062;DHT22;5070;52.382;5.270;2023-07-13T05:48:30;25.00;68.60
10062;DHT22;5070;52.382;5.270;2023-07-13T05:50:59;25.00;68.60
10062;DHT22;5070;52.382;5.270;2023-07-13T05:53:28;25.00;68.60
10062;DHT22;5070;52.382;5.270;2023-07-13T05:55:56;25.00;68.60
10062;DHT22;5070;52.382;5.270;2023-07-13T05:58:28;25.00;68.80
10062;DHT22;5070;52.382;5.270;2023-07-13T06:01:03;25.00;69.10
10062;DHT22;5070;52.382;5.270;2023-07-13T06:03:32;25.00;69.30
10062;DHT22;5070;52.382;5.270;2023-07-13T06:06:00;25.00;69.50
10062;DHT22;5070;52.382;5.270;2023-07-13T06:08:28;25.10;70.40
10062;DHT22;5070;52.382;5.270;2023-07-13T06:11:02;25.10;70.00
10062;DHT22;5070;52.382;5.270;2023-07-13T06:13:31;25.10;70.60
10062;DHT22;5070;52.382;5.270;2023-07-13T06:16:01;25.10;70.80
10062;DHT22;5070;52.382;5.270;2023-07-13T06:18:32;25.10;70.40
10062;DHT22;5070;52.382;5.270;2023-07-13T06:21:00;25.10;71.20
10062;DHT22;5070;52.382;5.270;2023-07-13T06:23:28;25.10;70.90
10062;DHT22;5070;52.382;5.270;2023-07-13T06:25:57;25.10;71.20
10062;DHT22;5070;52.382;5.270;2023-07-13T06:28:25;25.10;71.30
10062;DHT22;5070;52.382;5.270;2023-07-13T06:30:53;25.10;70.20
10062;DHT22;5070;52.382;5.270;2023-07-13T06:33:23;25.10;70.50
10062;DHT22;5070;52.382;5.270;2023-07-13T06:35:51;25.10;70.80
10062;DHT22;5070;52.382;5.270;2023-07-13T06:38:20;25.10;71.10
10062;DHT22;5070;52.382;5.270;2023-07-13T06:40:48;25.10;71.50
10062;DHT22;5070;52.382;5.270;2023-07-13T06:43:16;25.10;71.50
10062;DHT22;5070;52.382;5.270;2023-07-13T06:45:46;25.10;71.30
10062;DHT22;5070;52.382;5.270;2023-07-13T06:48:17;25.20;71.80
10062;DHT22;5070;52.382;5.270;2023-07-13T06:50:48;25.20;71.80
10062;DHT22;5070;52.382;5.270;2023-07-13T06:53:18;25.20;72.40
10062;DHT22;5070;52.382;5.270;2023-07-13T06:55:50;25.20;72.40
10062;DHT22;5070;52.382;5.270;2023-07-13T06:58:19;25.20;72.60
10062;DHT22;5070;52.382;5.270;2023-07-13T07:00:50;25.20;72.40
10062;DHT22;5070;52.382;5.270;2023-07-13T07:03:20;25.20;72.40
10062;DHT22;5070;52.382;5.270;2023-07-13T07:05:50;25.20;72.70
10062;DHT22;5070;52.382;5.270;2023-07-13T07:08:18;25.20;72.90
10062;DHT22;5070;52.382;5.270;2023-07-13T07:10:47;25.20;72.70
10062;DHT22;5070;52.382;5.270;2023-07-13T07:13:18;25.20;72.60
10062;DHT22;5070;52.382;5.270;2023-07-13T07:15:46;25.20;72.50
10062;DHT22;5070;52.382;5.270;2023-07-13T07:18:14;25.20;73.10
10062;DHT22;5070;52.382;5.270;2023-07-13T07:20:43;25.20;72.80
10062;DHT22;5070;52.382;5.270;2023-07-13T07:23:12;25.20;71.60
10062;DHT22;5070;52.382;5.270;2023-07-13T07:25:43;25.20;71.00
10062;DHT22;5070;52.382;5.270;2023-07-13T07:28:15;25.20;72.00
10062;DHT22;5070;52.382;5.270;2023-07-13T07:30:48;25.20;70.90
10062;DHT22;5070;52.382;5.270;2023-07-13T07:33:19;25.20;70.70
10062;DHT22;5070;52.382;5.270;2023-07-13T07:35:48;25.20;70.30
10062;DHT22;5070;52.382;5.270;2023-07-13T07:38:20;25.20;71.00
10062;DHT22;5070;52.382;5.270;2023-07-13T07:40:51;25.20;70.20
10062;DHT22;5070;52.382;5.270;2023-07-13T07:43:22;25.20;70.80
10062;DHT22;5070;52.382;5.270;2023-07-13T07:45:50;25.20;71.60
10062;DHT22;5070;52.382;5.270;2023-07-13T07:48:18;25.20;72.30
10062;DHT22;5070;52.382;5.270;2023-07-13T07:50:47;25.20;72.40
10062;DHT22;5070;52.382;5.270;2023-07-13T07:53:15;25.20;72.60
10062;DHT22;5070;52.382;5.270;2023-07-13T07:55:44;25.20;72.50
10062;DHT22;5070;52.382;5.270;2023-07-13T07:58:17;25.20;72.70
10062;DHT22;5070;52.382;5.270;2023-07-13T08:01:06;25.20;72.70
10062;DHT22;5070;52.382;5.270;2023-07-13T08:03:37;25.20;73.00
10062;DHT22;5070;52.382;5.270;2023-07-13T08:06:08;25.30;72.90
10062;DHT22;5070;52.382;5.270;2023-07-13T08:08:56;25.20;72.80
10062;DHT22;5070;52.382;5.270;2023-07-13T08:11:26;25.30;71.50
10062;DHT22;5070;52.382;5.270;2023-07-13T08:13:57;25.30;72.40
10062;DHT22;5070;52.382;5.270;2023-07-13T08:16:26;25.30;72.80
10062;DHT22;5070;52.382;5.270;2023-07-13T08:18:54;25.30;72.40
10062;DHT22;5070;52.382;5.270;2023-07-13T08:21:23;25.30;72.50
10062;DHT22;5070;52.382;5.270;2023-07-13T08:23:51;25.30;72.40
10062;DHT22;5070;52.382;5.270;2023-07-13T08:26:19;25.30;72.50
10062;DHT22;5070;52.382;5.270;2023-07-13T08:28:50;25.30;72.90
10062;DHT22;5070;52.382;5.270;2023-07-13T08:31:18;25.30;72.70
10062;DHT22;5070;52.382;5.270;2023-07-13T08:33:46;25.30;73.00
10062;DHT22;5070;52.382;5.270;2023-07-13T08:36:14;25.40;73.30
10062;DHT22;5070;52.382;5.270;2023-07-13T08:38:43;25.40;72.80
10062;DHT22;5070;52.382;5.270;2023-07-13T08:41:14;25.40;72.70
10062;DHT22;5070;52.382;5.270;2023-07-13T08:43:45;25.40;72.70
10062;DHT22;5070;52.382;5.270;2023-07-13T08:46:19;25.40;72.50
10062;DHT22;5070;52.382;5.270;2023-07-13T08:48:52;25.40;72.00
10062;DHT22;5070;52.382;5.270;2023-07-13T08:51:31;25.40;72.20
10062;DHT22;5070;52.382;5.270;2023-07-13T08:54:02;25.40;72.50
10062;DHT22;5070;52.382;5.270;2023-07-13T08:56:32;25.50;72.20
10062;DHT22;5070;52.382;5.270;2023-07-13T08:59:04;25.50;72.20
10062;DHT22;5070;52.382;5.270;2023-07-13T09:01:52;25.40;72.10
10062;DHT22;5070;52.382;5.270;2023-07-13T09:04:25;25.40;71.70
10062;DHT22;5070;52.382;5.270;2023-07-13T09:07:03;25.40;71.90
10062;DHT22;5070;52.382;5.270;2023-07-13T09:09:41;25.40;72.00
10062;DHT22;5070;52.382;5.270;2023-07-13T09:12:15;25.50;72.00
10062;DHT22;5070;52.382;5.270;2023-07-13T09:14:48;25.40;72.00
10062;DHT22;5070;52.382;5.270;2023-07-13T09:17:20;25.40;72.00
10062;DHT22;5070;52.382;5.270;2023-07-13T09:19:54;25.40;71.80
10062;DHT22;5070;52.382;5.270;2023-07-13T09:22:25;25.40;71.80
10062;DHT22;5070;52.382;5.270;2023-07-13T09:25:00;25.40;71.90
10062;DHT22;5070;52.382;5.270;2023-07-13T09:27:33;25.40;71.60
10062;DHT22;5070;52.382;5.270;2023-07-13T09:30:21;25.40;71.70
10062;DHT22;5070;52.382;5.270;2023-07-13T09:32:53;25.40;71.50
10062;DHT22;5070;52.382;5.270;2023-07-13T09:35:25;25.40;71.40
10062;DHT22;5070;52.382;5.270;2023-07-13T09:37:58;25.40;71.40
10062;DHT22;5070;52.382;5.270;2023-07-13T09:40:36;25.40;72.00
10062;DHT22;5070;52.382;5.270;2023-07-13T09:43:10;25.40;71.30
10062;DHT22;5070;52.382;5.270;2023-07-13T09:45:41;25.40;72.30
10062;DHT22;5070;52.382;5.270;2023-07-13T09:48:15;25.40;72.10
10062;DHT22;5070;52.382;5.270;2023-07-13T09:50:45;25.50;72.70
10062;DHT22;5070;52.382;5.270;2023-07-13T09:53:14;25.50;73.00
10062;DHT22;5070;52.382;5.270;2023-07-13T09:55:45;25.50;72.90
10062;DHT22;5070;52.382;5.270;2023-07-13T09:58:18;25.50;73.80
10062;DHT22;5070;52.382;5.270;2023-07-13T10:00:55;25.50;73.90
10062;DHT22;5070;52.382;5.270;2023-07-13T10:03:28;25.50;74.00
10062;DHT22;5070;52.382;5.270;2023-07-13T10:06:03;25.50;73.50
10062;DHT22;5070;52.382;5.270;2023-07-13T10:08:35;25.60;73.50
10062;DHT22;5070;52.382;5.270;2023-07-13T10:11:09;25.60;73.70
10062;DHT22;5070;52.382;5.270;2023-07-13T10:13:43;25.60;73.90
10062;DHT22;5070;52.382;5.270;2023-07-13T10:16:12;25.60;74.60
10062;DHT22;5070;52.382;5.270;2023-07-13T10:18:46;25.60;73.90
10062;DHT22;5070;52.382;5.270;2023-07-13T10:21:19;25.60;74.10
10062;DHT22;5070;52.382;5.270;2023-07-13T10:24:06;25.60;73.90
10062;DHT22;5070;52.382;5.270;2023-07-13T10:26:41;25.60;74.40
10062;DHT22;5070;52.382;5.270;2023-07-13T10:29:14;25.60;74.60
10062;DHT22;5070;52.382;5.270;2023-07-13T10:31:44;25.70;73.60
10062;DHT22;5070;52.382;5.270;2023-07-13T10:34:14;25.60;73.80
10062;DHT22;5070;52.382;5.270;2023-07-13T10:36:45;25.70;73.70
10062;DHT22;5070;52.382;5.270;2023-07-13T10:39:17;25.70;74.20
10062;DHT22;5070;52.382;5.270;2023-07-13T10:41:50;25.70;74.00
10062;DHT22;5070;52.382;5.270;2023-07-13T10:44:23;25.70;73.70
10062;DHT22;5070;52.382;5.270;2023-07-13T10:46:55;25.70;74.00
10062;DHT22;5070;52.382;5.270;2023-07-13T10:49:27;25.70;73.00
10062;DHT22;5070;52.382;5.270;2023-07-13T10:51:56;25.70;72.90
10062;DHT22;5070;52.382;5.270;2023-07-13T10:54:28;25.70;73.80
10062;DHT22;5070;52.382;5.270;2023-07-13T10:57:14;25.70;74.30
10062;DHT22;5070;52.382;5.270;2023-07-13T10:59:47;25.70;74.10
10062;DHT22;5070;52.382;5.270;2023-07-13T11:02:23;25.70;75.30
10062;DHT22;5070;52.382;5.270;2023-07-13T11:04:55;25.80;74.90
10062;DHT22;5070;52.382;5.270;2023-07-13T11:07:26;25.70;74.50
10062;DHT22;5070;52.382;5.270;2023-07-13T11:09:56;25.70;74.30
10062;DHT22;5070;52.382;5.270;2023-07-13T11:12:49;25.80;74.90
10062;DHT22;5070;52.382;5.270;2023-07-13T11:15:32;25.80;75.20
10062;DHT22;5070;52.382;5.270;2023-07-13T11:18:04;25.80;75.50
10062;DHT22;5070;52.382;5.270;2023-07-13T11:20:42;25.80;75.50
10062;DHT22;5070;52.382;5.270;2023-07-13T11:23:31;25.80;74.60
10062;DHT22;5070;52.382;5.270;2023-07-13T11:26:00;25.80;75.00
10062;DHT22;5070;52.382;5.270;2023-07-13T11:28:31;25.80;74.10
10062;DHT22;5070;52.382;5.270;2023-07-13T11:31:03;25.80;74.40
10062;DHT22;5070;52.382;5.270;2023-07-13T11:33:56;25.80;74.40
10062;DHT22;5070;52.382;5.270;2023-07-13T11:36:36;25.80;74.30
10062;DHT22;5070;52.382;5.270;2023-07-13T11:39:18;25.80;73.90
10062;DHT22;5070;52.382;5.270;2023-07-13T11:41:51;25.80;74.10
10062;DHT22;5070;52.382;5.270;2023-07-13T11:44:21;25.80;73.90
10062;DHT22;5070;52.382;5.270;2023-07-13T11:46:51;25.80;73.20
10062;DHT22;5070;52.382;5.270;2023-07-13T11:49:23;25.80;73.40
10062;DHT22;5070;52.382;5.270;2023-07-13T11:51:53;25.80;71.00
10062;DHT22;5070;52.382;5.270;2023-07-13T11:54:28;25.80;69.00
10062;DHT22;5070;52.382;5.270;2023-07-13T11:56:59;25.80;69.50
10062;DHT22;5070;52.382;5.270;2023-07-13T11:59:30;25.80;69.50
10062;DHT22;5070;52.382;5.270;2023-07-13T12:02:00;25.80;69.40
10062;DHT22;5070;52.382;5.270;2023-07-13T12:04:31;25.80;69.20
10062;DHT22;5070;52.382;5.270;2023-07-13T12:07:06;25.80;69.20
10062;DHT22;5070;52.382;5.270;2023-07-13T12:09:36;25.80;69.10
10062;DHT22;5070;52.382;5.270;2023-07-13T12:12:11;25.80;69.20
10062;DHT22;5070;52.382;5.270;2023-07-13T12:14:41;25.80;69.20
10062;DHT22;5070;52.382;5.270;2023-07-13T12:17:15;25.80;69.20
10062;DHT22;5070;52.382;5.270;2023-07-13T12:19:43;25.80;69.20
10062;DHT22;5070;52.382;5.270;2023-07-13T12:22:15;25.80;69.20
10062;DHT22;5070;52.382;5.270;2023-07-13T12:24:45;25.80;69.10
10062;DHT22;5070;52.382;5.270;2023-07-13T12:27:20;25.80;69.60
10062;DHT22;5070;52.382;5.270;2023-07-13T12:29:51;25.80;70.20
10062;DHT22;5070;52.382;5.270;2023-07-13T12:32:20;25.80;68.50
10062;DHT22;5070;52.382;5.270;2023-07-13T12:34:53;25.80;63.90
10062;DHT22;5070;52.382;5.270;2023-07-13T12:37:24;25.80;63.60
10062;DHT22;5070;52.382;5.270;2023-07-13T12:39:53;25.80;63.30
10062;DHT22;5070;52.382;5.270;2023-07-13T12:42:23;25.80;64.70
10062;DHT22;5070;52.382;5.270;2023-07-13T12:45:01;25.80;63.40
10062;DHT22;5070;52.382;5.270;2023-07-13T12:47:40;25.80;64.50
10062;DHT22;5070;52.382;5.270;2023-07-13T12:50:15;25.70;65.60
10062;DHT22;5070;52.382;5.270;2023-07-13T12:52:50;25.70;59.40
10062;DHT22;5070;52.382;5.270;2023-07-13T12:55:22;25.70;58.80
10062;DHT22;5070;52.382;5.270;2023-07-13T12:57:52;25.70;58.60
10062;DHT22;5070;52.382;5.270;2023-07-13T13:00:23;25.80;59.10
10062;DHT22;5070;52.382;5.270;2023-07-13T13:02:54;25.70;58.80
10062;DHT22;5070;52.382;5.270;2023-07-13T13:05:43;25.70;58.50
10062;DHT22;5070;52.382;5.270;2023-07-13T13:08:14;25.70;58.90
10062;DHT22;5070;52.382;5.270;2023-07-13T13:10:42;25.70;59.60
10062;DHT22;5070;52.382;5.270;2023-07-13T13:13:12;25.70;59.70
10062;DHT22;5070;52.382;5.270;2023-07-13T13:15:40;25.70;59.30
10062;DHT22;5070;52.382;5.270;2023-07-13T13:18:15;25.70;58.60
10062;DHT22;5070;52.382;5.270;2023-07-13T13:20:45;25.70;58.50
10062;DHT22;5070;52.382;5.270;2023-07-13T13:23:16;25.60;58.90
10062;DHT22;5070;52.382;5.270;2023-07-13T13:25:46;25.70;59.40
10062;DHT22;5070;52.382;5.270;2023-07-13T13:28:15;25.70;59.70
10062;DHT22;5070;52.382;5.270;2023-07-13T13:30:45;25.60;59.60
10062;DHT22;5070;52.382;5.270;2023-07-13T13:33:16;25.70;59.40
10062;DHT22;5070;52.382;5.270;2023-07-13T13:35:45;25.70;59.50
10062;DHT22;5070;52.382;5.270;2023-07-13T13:38:19;25.70;59.00
10062;DHT22;5070;52.382;5.270;2023-07-13T13:40:48;25.70;59.90
10062;DHT22;5070;52.382;5.270;2023-07-13T13:43:17;25.70;59.80
10062;DHT22;5070;52.382;5.270;2023-07-13T13:45:46;25.70;59.00
10062;DHT22;5070;52.382;5.270;2023-07-13T13:48:16;25.70;59.40
10062;DHT22;5070;52.382;5.270;2023-07-13T13:50:47;25.70;59.60
10062;DHT22;5070;52.382;5.270;2023-07-13T13:53:16;25.70;60.10
10062;DHT22;5070;52.382;5.270;2023-07-13T13:55:44;25.70;60.60
10062;DHT22;5070;52.382;5.270;2023-07-13T13:58:13;25.70;59.60
10062;DHT22;5070;52.382;5.270;2023-07-13T14:00:41;25.70;59.30
10062;DHT22;5070;52.382;5.270;2023-07-13T14:03:15;25.70;59.70
10062;DHT22;5070;52.382;5.270;2023-07-13T14:05:44;25.70;59.60
10062;DHT22;5070;52.382;5.270;2023-07-13T14:08:16;25.70;60.70
10062;DHT22;5070;52.382;5.270;2023-07-13T14:10:48;25.70;60.30
10062;DHT22;5070;52.382;5.270;2023-07-13T14:13:18;25.70;59.70
10062;DHT22;5070;52.382;5.270;2023-07-13T14:15:48;25.70;60.30
10062;DHT22;5070;52.382;5.270;2023-07-13T14:18:16;25.70;60.50
10062;DHT22;5070;52.382;5.270;2023-07-13T14:20:46;25.80;59.90
10062;DHT22;5070;52.382;5.270;2023-07-13T14:23:16;25.70;60.00
10062;DHT22;5070;52.382;5.270;2023-07-13T14:25:46;25.70;59.90
10062;DHT22;5070;52.382;5.270;2023-07-13T14:28:25;25.70;60.10
10062;DHT22;5070;52.382;5.270;2023-07-13T14:30:55;25.70;60.70
10062;DHT22;5070;52.382;5.270;2023-07-13T14:33:24;25.70;60.30
10062;DHT22;5070;52.382;5.270;2023-07-13T14:35:52;25.70;60.80
10062;DHT22;5070;52.382;5.270;2023-07-13T14:38:22;25.70;60.30
10062;DHT22;5070;52.382;5.270;2023-07-13T14:40:50;25.70;59.50
10062;DHT22;5070;52.382;5.270;2023-07-13T14:43:19;25.70;60.40
10062;DHT22;5070;52.382;5.270;2023-07-13T14:45:49;25.70;60.50
10062;DHT22;5070;52.382;5.270;2023-07-13T14:48:20;25.70;59.70
10062;DHT22;5070;52.382;5.270;2023-07-13T14:50:53;25.80;59.70
10062;DHT22;5070;52.382;5.270;2023-07-13T14:53:24;25.70;59.70
10062;DHT22;5070;52.382;5.270;2023-07-13T14:55:54;25.70;60.10
10062;DHT22;5070;52.382;5.270;2023-07-13T14:58:23;25.70;59.40
10062;DHT22;5070;52.382;5.270;2023-07-13T15:00:51;25.70;59.70
10062;DHT22;5070;52.382;5.270;2023-07-13T15:03:25;25.70;59.70
10062;DHT22;5070;52.382;5.270;2023-07-13T15:05:53;25.70;59.50
10062;DHT22;5070;52.382;5.270;2023-07-13T15:08:23;25.70;59.40
10062;DHT22;5070;52.382;5.270;2023-07-13T15:10:52;25.70;58.80
10062;DHT22;5070;52.382;5.270;2023-07-13T15:13:21;25.70;58.40
10062;DHT22;5070;52.382;5.270;2023-07-13T15:15:51;25.80;58.70
10062;DHT22;5070;52.382;5.270;2023-07-13T15:18:23;25.70;58.30
10062;DHT22;5070;52.382;5.270;2023-07-13T15:20:52;25.80;57.20
10062;DHT22;5070;52.382;5.270;2023-07-13T15:23:23;25.70;56.80
10062;DHT22;5070;52.382;5.270;2023-07-13T15:25:52;25.70;56.80
10062;DHT22;5070;52.382;5.270;2023-07-13T15:28:21;25.80;57.60
10062;DHT22;5070;52.382;5.270;2023-07-13T15:30:49;25.70;57.00
10062;DHT22;5070;52.382;5.270;2023-07-13T15:33:21;25.80;56.80
10062;DHT22;5070;52.382;5.270;2023-07-13T15:35:53;25.80;57.00
10062;DHT22;5070;52.382;5.270;2023-07-13T15:38:25;25.70;57.20
10062;DHT22;5070;52.382;5.270;2023-07-13T15:40:57;25.80;58.00
10062;DHT22;5070;52.382;5.270;2023-07-13T15:43:26;25.70;57.80
10062;DHT22;5070;52.382;5.270;2023-07-13T15:45:54;25.80;58.10
10062;DHT22;5070;52.382;5.270;2023-07-13T15:48:23;25.70;58.70
10062;DHT22;5070;52.382;5.270;2023-07-13T15:50:55;25.80;59.10
10062;DHT22;5070;52.382;5.270;2023-07-13T15:53:32;25.80;58.30
10062;DHT22;5070;52.382;5.270;2023-07-13T15:56:03;25.80;57.80
10062;DHT22;5070;52.382;5.270;2023-07-13T15:58:39;25.80;58.40
10062;DHT22;5070;52.382;5.270;2023-07-13T16:01:09;25.80;59.60
10062;DHT22;5070;52.382;5.270;2023-07-13T16:03:37;25.80;60.50
10062;DHT22;5070;52.382;5.270;2023-07-13T16:06:12;25.80;61.40
10062;DHT22;5070;52.382;5.270;2023-07-13T16:08:43;25.80;62.50